sensor_id;sensor_type;location;lat;lon;timestamp;P1;durP1;ratioP1;P2;durP2;ratioP2
80247;SDS011;69560;52.206;21.018;2023-04-21T00:01:34;13.00;;;9.80;;
80247;SDS011;69560;52.206;21.018;2023-04-21T00:04:06;12.30;;;9.10;;
80247;SDS011;69560;52.206;21.018;2023-04-21T00:06:41;13.40;;;9.20;;
80247;SDS011;69560;52.206;21.018;2023-04-21T00:09:08;10.80;;;8.50;;
80247;SDS011;69560;52.206;21.018;2023-04-21T00:11:45;12.10;;;8.80;;
80247;SDS011;69560;52.206;21.018;2023-04-21T00:16:56;12.30;;;9.30;;
80247;SDS011;69560;52.206;21.018;2023-04-21T00:19:30;13.20;;;9.30;;
80247;SDS011;69560;52.206;21.018;2023-04-21T00:22:00;13.00;;;9.30;;
80247;SDS011;69560;52.206;21.018;2023-04-21T00:24:29;11.90;;;8.40;;
80247;SDS011;69560;52.206;21.018;2023-04-21T00:26:58;11.40;;;8.70;;
80247;SDS011;69560;52.206;21.018;2023-04-21T00:29:29;13.40;;;8.70;;
80247;SDS011;69560;52.206;21.018;2023-04-21T00:31:56;10.40;;;9.00;;
80247;SDS011;69560;52.206;21.018;2023-04-21T00:34:46;13.20;;;9.20;;
80247;SDS011;69560;52.206;21.018;2023-04-21T00:37:20;13.60;;;9.80;;
80247;SDS011;69560;52.206;21.018;2023-04-21T00:39:51;11.70;;;9.10;;
80247;SDS011;69560;52.206;21.018;2023-04-21T00:42:18;13.10;;;9.20;;
80247;SDS011;69560;52.206;21.018;2023-04-21T00:44:53;12.90;;;9.40;;
80247;SDS011;69560;52.206;21.018;2023-04-21T00:47:24;10.70;;;9.20;;
80247;SDS011;69560;52.206;21.018;2023-04-21T00:50:02;13.50;;;9.50;;
80247;SDS011;69560;52.206;21.018;2023-04-21T00:52:42;12.70;;;9.90;;
80247;SDS011;69560;52.206;21.018;2023-04-21T00:55:09;11.50;;;9.20;;
80247;SDS011;69560;52.206;21.018;2023-04-21T00:57:39;12.60;;;8.40;;
80247;SDS011;69560;52.206;21.018;2023-04-21T01:02:37;13.10;;;9.10;;
80247;SDS011;69560;52.206;21.018;2023-04-21T01:05:05;12.80;;;9.20;;
80247;SDS011;69560;52.206;21.018;2023-04-21T01:07:36;11.90;;;8.80;;
80247;SDS011;69560;52.206;21.018;2023-04-21T01:10:26;10.60;;;9.40;;
80247;SDS011;69560;52.206;21.018;2023-04-21T01:13:23;11.80;;;9.40;;
80247;SDS011;69560;52.206;21.018;2023-04-21T01:16:03;33.90;;;25.90;;
80247;SDS011;69560;52.206;21.018;2023-04-21T01:21:02;15.90;;;10.90;;
80247;SDS011;69560;52.206;21.018;2023-04-21T01:23:31;17.80;;;9.50;;
80247;SDS011;69560;52.206;21.018;2023-04-21T01:26:13;15.40;;;10.40;;
80247;SDS011;69560;52.206;21.018;2023-04-21T01:28:46;12.60;;;8.60;;
80247;SDS011;69560;52.206;21.018;2023-04-21T01:31:17;13.00;;;9.00;;
80247;SDS011;69560;52.206;21.018;2023-04-21T01:33:46;11.30;;;8.30;;
80247;SDS011;69560;52.206;21.018;2023-04-21T01:36:25;12.00;;;8.90;;
80247;SDS011;69560;52.206;21.018;2023-04-21T01:38:57;12.80;;;8.50;;
80247;SDS011;69560;52.206;21.018;2023-04-21T01:44:21;10.80;;;8.60;;
80247;SDS011;69560;52.206;21.018;2023-04-21T01:46:53;10.80;;;8.70;;
80247;SDS011;69560;52.206;21.018;2023-04-21T01:49:41;13.30;;;8.60;;
80247;SDS011;69560;52.206;21.018;2023-04-21T01:52:13;9.90;;;8.80;;
80247;SDS011;69560;52.206;21.018;2023-04-21T01:54:40;15.30;;;8.90;;
80247;SDS011;69560;52.206;21.018;2023-04-21T01:57:16;12.10;;;8.50;;
80247;SDS011;69560;52.206;21.018;2023-04-21T02:02:28;12.20;;;8.70;;
80247;SDS011;69560;52.206;21.018;2023-04-21T02:08:17;13.10;;;9.00;;
80247;SDS011;69560;52.206;21.018;2023-04-21T02:10:46;11.40;;;8.50;;
80247;SDS011;69560;52.206;21.018;2023-04-21T02:13:21;15.10;;;9.00;;
80247;SDS011;69560;52.206;21.018;2023-04-21T02:15:51;12.70;;;8.70;;
80247;SDS011;69560;52.206;21.018;2023-04-21T02:18:21;13.00;;;9.00;;
80247;SDS011;69560;52.206;21.018;2023-04-21T02:20:58;12.00;;;9.10;;
80247;SDS011;69560;52.206;21.018;2023-04-21T02:23:25;12.90;;;9.40;;
80247;SDS011;69560;52.206;21.018;2023-04-21T02:25:52;16.20;;;8.60;;
80247;SDS011;69560;52.206;21.018;2023-04-21T02:28:22;16.80;;;9.50;;
80247;SDS011;69560;52.206;21.018;2023-04-21T02:31:04;12.20;;;8.70;;
80247;SDS011;69560;52.206;21.018;2023-04-21T02:33:31;9.90;;;8.20;;
80247;SDS011;69560;52.206;21.018;2023-04-21T02:36:04;9.70;;;8.40;;
80247;SDS011;69560;52.206;21.018;2023-04-21T02:38:44;12.90;;;8.10;;
80247;SDS011;69560;52.206;21.018;2023-04-21T02:41:13;12.70;;;9.10;;
80247;SDS011;69560;52.206;21.018;2023-04-21T02:43:59;13.80;;;8.50;;
80247;SDS011;69560;52.206;21.018;2023-04-21T02:46:52;13.60;;;9.10;;
80247;SDS011;69560;52.206;21.018;2023-04-21T02:49:22;11.00;;;8.70;;
80247;SDS011;69560;52.206;21.018;2023-04-21T02:51:49;11.20;;;9.00;;
80247;SDS011;69560;52.206;21.018;2023-04-21T02:54:16;11.70;;;9.10;;
80247;SDS011;69560;52.206;21.018;2023-04-21T02:56:48;13.40;;;8.70;;
80247;SDS011;69560;52.206;21.018;2023-04-21T02:59:24;13.80;;;8.60;;
80247;SDS011;69560;52.206;21.018;2023-04-21T03:01:59;11.60;;;8.40;;
80247;SDS011;69560;52.206;21.018;2023-04-21T03:04:28;12.30;;;8.30;;
80247;SDS011;69560;52.206;21.018;2023-04-21T03:06:57;10.70;;;8.30;;
80247;SDS011;69560;52.206;21.018;2023-04-21T03:09:29;11.70;;;8.60;;
80247;SDS011;69560;52.206;21.018;2023-04-21T03:11:59;11.60;;;8.50;;
80247;SDS011;69560;52.206;21.018;2023-04-21T03:19:34;10.30;;;8.00;;
80247;SDS011;69560;52.206;21.018;2023-04-21T03:22:01;10.10;;;8.10;;
80247;SDS011;69560;52.206;21.018;2023-04-21T03:24:27;12.40;;;8.00;;
80247;SDS011;69560;52.206;21.018;2023-04-21T03:26:56;11.70;;;9.00;;
80247;SDS011;69560;52.206;21.018;2023-04-21T03:29:23;11.00;;;8.20;;
80247;SDS011;69560;52.206;21.018;2023-04-21T03:31:50;9.70;;;8.10;;
80247;SDS011;69560;52.206;21.018;2023-04-21T03:34:22;11.20;;;8.40;;
80247;SDS011;69560;52.206;21.018;2023-04-21T03:36:52;11.50;;;7.80;;
80247;SDS011;69560;52.206;21.018;2023-04-21T03:39:21;11.10;;;8.50;;
80247;SDS011;69560;52.206;21.018;2023-04-21T03:41:48;13.40;;;8.10;;
80247;SDS011;69560;52.206;21.018;2023-04-21T03:44:21;14.00;;;8.20;;
80247;SDS011;69560;52.206;21.018;2023-04-21T03:46:54;11.10;;;8.80;;
80247;SDS011;69560;52.206;21.018;2023-04-21T03:49:32;14.40;;;7.70;;
80247;SDS011;69560;52.206;21.018;2023-04-21T03:52:07;10.80;;;8.20;;
80247;SDS011;69560;52.206;21.018;2023-04-21T03:54:37;10.90;;;8.30;;
80247;SDS011;69560;52.206;21.018;2023-04-21T03:57:04;12.00;;;7.70;;
80247;SDS011;69560;52.206;21.018;2023-04-21T03:59:31;11.70;;;8.30;;
80247;SDS011;69560;52.206;21.018;2023-04-21T04:02:01;12.10;;;9.10;;
80247;SDS011;69560;52.206;21.018;2023-04-21T04:04:28;16.30;;;8.00;;
80247;SDS011;69560;52.206;21.018;2023-04-21T04:06:58;10.80;;;8.30;;
80247;SDS011;69560;52.206;21.018;2023-04-21T04:09:25;11.40;;;8.30;;
80247;SDS011;69560;52.206;21.018;2023-04-21T04:12:04;13.00;;;8.20;;
80247;SDS011;69560;52.206;21.018;2023-04-21T04:14:42;11.40;;;7.60;;
80247;SDS011;69560;52.206;21.018;2023-04-21T04:17:29;9.30;;;7.80;;
80247;SDS011;69560;52.206;21.018;2023-04-21T04:19:56;11.40;;;7.80;;
80247;SDS011;69560;52.206;21.018;2023-04-21T04:25:12;15.00;;;7.80;;
80247;SDS011;69560;52.206;21.018;2023-04-21T04:30:30;9.40;;;8.40;;
80247;SDS011;69560;52.206;21.018;2023-04-21T04:33:00;12.90;;;7.10;;
80247;SDS011;69560;52.206;21.018;2023-04-21T04:35:27;10.80;;;7.50;;
80247;SDS011;69560;52.206;21.018;2023-04-21T04:37:59;13.60;;;7.70;;
80247;SDS011;69560;52.206;21.018;2023-04-21T04:40:26;11.50;;;7.90;;
80247;SDS011;69560;52.206;21.018;2023-04-21T04:42:55;11.00;;;7.70;;
80247;SDS011;69560;52.206;21.018;2023-04-21T04:45:25;10.40;;;7.90;;
80247;SDS011;69560;52.206;21.018;2023-04-21T04:48:05;12.90;;;7.70;;
80247;SDS011;69560;52.206;21.018;2023-04-21T04:50:32;14.90;;;7.50;;
80247;SDS011;69560;52.206;21.018;2023-04-21T04:52:59;10.00;;;7.90;;
80247;SDS011;69560;52.206;21.018;2023-04-21T04:55:28;10.80;;;7.80;;
80247;SDS011;69560;52.206;21.018;2023-04-21T04:57:58;10.50;;;7.40;;
80247;SDS011;69560;52.206;21.018;2023-04-21T05:00:27;8.70;;;7.50;;
80247;SDS011;69560;52.206;21.018;2023-04-21T05:02:57;10.50;;;7.70;;
80247;SDS011;69560;52.206;21.018;2023-04-21T05:05:23;12.30;;;8.10;;
80247;SDS011;69560;52.206;21.018;2023-04-21T05:07:50;10.20;;;7.20;;
80247;SDS011;69560;52.206;21.018;2023-04-21T05:10:26;9.00;;;7.10;;
80247;SDS011;69560;52.206;21.018;2023-04-21T05:12:53;10.20;;;8.00;;
80247;SDS011;69560;52.206;21.018;2023-04-21T05:15:20;11.50;;;7.60;;
80247;SDS011;69560;52.206;21.018;2023-04-21T05:20:30;11.20;;;7.10;;
80247;SDS011;69560;52.206;21.018;2023-04-21T05:22:59;11.60;;;7.20;;
80247;SDS011;69560;52.206;21.018;2023-04-21T05:25:28;10.50;;;6.70;;
80247;SDS011;69560;52.206;21.018;2023-04-21T05:28:18;9.40;;;7.00;;
80247;SDS011;69560;52.206;21.018;2023-04-21T05:30:56;11.60;;;7.30;;
80247;SDS011;69560;52.206;21.018;2023-04-21T05:33:22;12.80;;;8.00;;
80247;SDS011;69560;52.206;21.018;2023-04-21T05:35:59;11.40;;;7.40;;
80247;SDS011;69560;52.206;21.018;2023-04-21T05:38:25;10.40;;;6.50;;
80247;SDS011;69560;52.206;21.018;2023-04-21T05:40:53;14.10;;;7.00;;
80247;SDS011;69560;52.206;21.018;2023-04-21T05:43:22;14.90;;;6.50;;
80247;SDS011;69560;52.206;21.018;2023-04-21T05:45:54;11.20;;;7.20;;
80247;SDS011;69560;52.206;21.018;2023-04-21T05:48:24;12.60;;;7.10;;
80247;SDS011;69560;52.206;21.018;2023-04-21T05:54:20;12.10;;;7.50;;
80247;SDS011;69560;52.206;21.018;2023-04-21T05:56:49;9.80;;;6.50;;
80247;SDS011;69560;52.206;21.018;2023-04-21T05:59:19;11.60;;;7.00;;
80247;SDS011;69560;52.206;21.018;2023-04-21T06:01:49;14.50;;;6.30;;
80247;SDS011;69560;52.206;21.018;2023-04-21T06:04:21;13.70;;;6.90;;
80247;SDS011;69560;52.206;21.018;2023-04-21T06:06:50;12.90;;;7.10;;
80247;SDS011;69560;52.206;21.018;2023-04-21T06:09:17;10.50;;;6.50;;
80247;SDS011;69560;52.206;21.018;2023-04-21T06:11:50;12.80;;;6.70;;
80247;SDS011;69560;52.206;21.018;2023-04-21T06:14:21;29.30;;;8.90;;
80247;SDS011;69560;52.206;21.018;2023-04-21T06:16:59;69.90;;;12.60;;
80247;SDS011;69560;52.206;21.018;2023-04-21T06:19:39;61.70;;;11.30;;
80247;SDS011;69560;52.206;21.018;2023-04-21T06:22:37;26.00;;;7.00;;
80247;SDS011;69560;52.206;21.018;2023-04-21T06:25:07;43.50;;;10.20;;
80247;SDS011;69560;52.206;21.018;2023-04-21T06:30:57;20.40;;;6.90;;
80247;SDS011;69560;52.206;21.018;2023-04-21T06:33:35;15.00;;;7.20;;
80247;SDS011;69560;52.206;21.018;2023-04-21T06:36:23;12.80;;;6.70;;
80247;SDS011;69560;52.206;21.018;2023-04-21T06:39:02;14.40;;;7.00;;
80247;SDS011;69560;52.206;21.018;2023-04-21T06:41:43;10.60;;;6.10;;
80247;SDS011;69560;52.206;21.018;2023-04-21T06:44:31;15.00;;;9.90;;
80247;SDS011;69560;52.206;21.018;2023-04-21T06:47:24;13.70;;;7.40;;
80247;SDS011;69560;52.206;21.018;2023-04-21T06:50:13;10.40;;;6.40;;
80247;SDS011;69560;52.206;21.018;2023-04-21T06:52:57;8.10;;;5.70;;
80247;SDS011;69560;52.206;21.018;2023-04-21T06:55:39;19.90;;;6.70;;
80247;SDS011;69560;52.206;21.018;2023-04-21T06:58:32;18.60;;;6.20;;
80247;SDS011;69560;52.206;21.018;2023-04-21T07:04:07;17.10;;;6.70;;
80247;SDS011;69560;52.206;21.018;2023-04-21T07:06:57;10.10;;;5.90;;
80247;SDS011;69560;52.206;21.018;2023-04-21T07:12:59;13.00;;;5.50;;
80247;SDS011;69560;52.206;21.018;2023-04-21T07:15:51;9.30;;;5.30;;
80247;SDS011;69560;52.206;21.018;2023-04-21T07:21:45;9.30;;;5.40;;
80247;SDS011;69560;52.206;21.018;2023-04-21T07:24:49;12.40;;;4.50;;
80247;SDS011;69560;52.206;21.018;2023-04-21T07:27:35;10.40;;;4.60;;
80247;SDS011;69560;52.206;21.018;2023-04-21T07:33:13;10.00;;;6.50;;
80247;SDS011;69560;52.206;21.018;2023-04-21T07:38:58;10.80;;;5.30;;
80247;SDS011;69560;52.206;21.018;2023-04-21T07:42:01;7.60;;;4.90;;
80247;SDS011;69560;52.206;21.018;2023-04-21T07:48:00;7.80;;;5.00;;
80247;SDS011;69560;52.206;21.018;2023-04-21T07:51:03;17.80;;;11.70;;
80247;SDS011;69560;52.206;21.018;2023-04-21T07:54:11;10.10;;;5.80;;
80247;SDS011;69560;52.206;21.018;2023-04-21T07:56:58;8.20;;;4.80;;
80247;SDS011;69560;52.206;21.018;2023-04-21T08:00:14;8.10;;;5.40;;
80247;SDS011;69560;52.206;21.018;2023-04-21T08:03:21;8.40;;;5.10;;
80247;SDS011;69560;52.206;21.018;2023-04-21T08:06:09;7.60;;;4.40;;
80247;SDS011;69560;52.206;21.018;2023-04-21T08:15:13;8.60;;;4.20;;
80247;SDS011;69560;52.206;21.018;2023-04-21T08:20:57;7.20;;;3.70;;
80247;SDS011;69560;52.206;21.018;2023-04-21T08:23:53;3.90;;;3.30;;
80247;SDS011;69560;52.206;21.018;2023-04-21T08:29:48;4.90;;;3.60;;
80247;SDS011;69560;52.206;21.018;2023-04-21T08:35:36;7.20;;;3.60;;
80247;SDS011;69560;52.206;21.018;2023-04-21T08:38:06;6.90;;;2.90;;
80247;SDS011;69560;52.206;21.018;2023-04-21T08:41:05;5.50;;;2.90;;
80247;SDS011;69560;52.206;21.018;2023-04-21T08:43:53;5.50;;;2.70;;
80247;SDS011;69560;52.206;21.018;2023-04-21T08:46:22;3.80;;;2.40;;
80247;SDS011;69560;52.206;21.018;2023-04-21T08:48:55;9.90;;;2.80;;
80247;SDS011;69560;52.206;21.018;2023-04-21T08:51:29;3.40;;;2.40;;
80247;SDS011;69560;52.206;21.018;2023-04-21T08:53:59;6.20;;;2.10;;
80247;SDS011;69560;52.206;21.018;2023-04-21T08:56:26;3.40;;;2.30;;
80247;SDS011;69560;52.206;21.018;2023-04-21T08:58:53;4.70;;;2.60;;
80247;SDS011;69560;52.206;21.018;2023-04-21T09:01:22;3.70;;;2.20;;
80247;SDS011;69560;52.206;21.018;2023-04-21T09:03:49;3.20;;;2.40;;
80247;SDS011;69560;52.206;21.018;2023-04-21T09:06:38;4.00;;;2.10;;
80247;SDS011;69560;52.206;21.018;2023-04-21T09:09:19;2.80;;;1.70;;
80247;SDS011;69560;52.206;21.018;2023-04-21T09:11:55;5.00;;;2.00;;
80247;SDS011;69560;52.206;21.018;2023-04-21T09:14:31;2.10;;;1.90;;
80247;SDS011;69560;52.206;21.018;2023-04-21T09:16:59;3.70;;;1.80;;
80247;SDS011;69560;52.206;21.018;2023-04-21T09:19:29;2.60;;;1.60;;
80247;SDS011;69560;52.206;21.018;2023-04-21T09:22:00;3.80;;;1.80;;
80247;SDS011;69560;52.206;21.018;2023-04-21T09:24:27;1.80;;;1.50;;
80247;SDS011;69560;52.206;21.018;2023-04-21T09:27:15;3.80;;;1.60;;
80247;SDS011;69560;52.206;21.018;2023-04-21T09:32:16;1.50;;;1.20;;
80247;SDS011;69560;52.206;21.018;2023-04-21T09:34:47;1.90;;;1.40;;
80247;SDS011;69560;52.206;21.018;2023-04-21T09:37:14;2.30;;;1.60;;
80247;SDS011;69560;52.206;21.018;2023-04-21T09:39:43;3.80;;;1.60;;
80247;SDS011;69560;52.206;21.018;2023-04-21T09:42:11;2.00;;;1.60;;
80247;SDS011;69560;52.206;21.018;2023-04-21T09:44:38;3.90;;;1.50;;
80247;SDS011;69560;52.206;21.018;2023-04-21T09:47:05;3.30;;;1.60;;
80247;SDS011;69560;52.206;21.018;2023-04-21T09:49:37;3.10;;;1.70;;
80247;SDS011;69560;52.206;21.018;2023-04-21T09:52:10;3.70;;;1.60;;
80247;SDS011;69560;52.206;21.018;2023-04-21T09:54:42;2.10;;;1.30;;
80247;SDS011;69560;52.206;21.018;2023-04-21T09:57:15;5.50;;;1.50;;
80247;SDS011;69560;52.206;21.018;2023-04-21T09:59:53;2.60;;;1.20;;
80247;SDS011;69560;52.206;21.018;2023-04-21T10:02:25;13.00;;;2.00;;
80247;SDS011;69560;52.206;21.018;2023-04-21T10:04:56;85.10;;;9.40;;
80247;SDS011;69560;52.206;21.018;2023-04-21T10:07:27;11.30;;;1.60;;
80247;SDS011;69560;52.206;21.018;2023-04-21T10:09:55;10.00;;;1.80;;
80247;SDS011;69560;52.206;21.018;2023-04-21T10:12:26;3.50;;;1.40;;
80247;SDS011;69560;52.206;21.018;2023-04-21T10:15:27;1.20;;;1.10;;
80247;SDS011;69560;52.206;21.018;2023-04-21T10:21:01;2.10;;;1.50;;
80247;SDS011;69560;52.206;21.018;2023-04-21T10:23:37;1.50;;;1.40;;
80247;SDS011;69560;52.206;21.018;2023-04-21T10:26:32;1.70;;;1.10;;
80247;SDS011;69560;52.206;21.018;2023-04-21T10:29:04;9.40;;;2.20;;
80247;SDS011;69560;52.206;21.018;2023-04-21T10:31:50;3.30;;;1.40;;
80247;SDS011;69560;52.206;21.018;2023-04-21T10:39:30;6.30;;;1.50;;
80247;SDS011;69560;52.206;21.018;2023-04-21T10:42:19;6.20;;;1.20;;
80247;SDS011;69560;52.206;21.018;2023-04-21T10:44:53;1.40;;;1.00;;
80247;SDS011;69560;52.206;21.018;2023-04-21T10:50:37;1.80;;;1.10;;
80247;SDS011;69560;52.206;21.018;2023-04-21T10:53:15;1.30;;;1.00;;
80247;SDS011;69560;52.206;21.018;2023-04-21T10:55:47;1.90;;;1.00;;
80247;SDS011;69560;52.206;21.018;2023-04-21T10:58:23;2.50;;;1.60;;
80247;SDS011;69560;52.206;21.018;2023-04-21T11:00:54;2.00;;;1.40;;
80247;SDS011;69560;52.206;21.018;2023-04-21T11:03:22;3.30;;;1.10;;
80247;SDS011;69560;52.206;21.018;2023-04-21T11:05:50;1.30;;;1.20;;
80247;SDS011;69560;52.206;21.018;2023-04-21T11:08:17;3.00;;;1.20;;
80247;SDS011;69560;52.206;21.018;2023-04-21T11:10:54;1.80;;;1.60;;
80247;SDS011;69560;52.206;21.018;2023-04-21T11:13:22;1.50;;;1.10;;
80247;SDS011;69560;52.206;21.018;2023-04-21T11:15:54;3.10;;;1.20;;
80247;SDS011;69560;52.206;21.018;2023-04-21T11:18:43;1.70;;;1.20;;
80247;SDS011;69560;52.206;21.018;2023-04-21T11:21:14;1.10;;;1.00;;
80247;SDS011;69560;52.206;21.018;2023-04-21T11:26:32;2.40;;;1.10;;
80247;SDS011;69560;52.206;21.018;2023-04-21T11:29:01;3.40;;;1.30;;
80247;SDS011;69560;52.206;21.018;2023-04-21T11:31:29;3.40;;;1.10;;
80247;SDS011;69560;52.206;21.018;2023-04-21T11:33:57;1.20;;;1.10;;
80247;SDS011;69560;52.206;21.018;2023-04-21T11:36:28;1.60;;;1.20;;
80247;SDS011;69560;52.206;21.018;2023-04-21T11:38:54;3.60;;;1.30;;
80247;SDS011;69560;52.206;21.018;2023-04-21T11:41:21;3.80;;;1.40;;
80247;SDS011;69560;52.206;21.018;2023-04-21T11:46:58;47.30;;;5.00;;
80247;SDS011;69560;52.206;21.018;2023-04-21T11:49:25;6.80;;;2.10;;
80247;SDS011;69560;52.206;21.018;2023-04-21T11:51:55;7.00;;;1.90;;
80247;SDS011;69560;52.206;21.018;2023-04-21T11:54:22;6.30;;;1.90;;
80247;SDS011;69560;52.206;21.018;2023-04-21T11:56:58;1.80;;;1.30;;
80247;SDS011;69560;52.206;21.018;2023-04-21T11:59:26;8.30;;;2.30;;
80247;SDS011;69560;52.206;21.018;2023-04-21T12:01:56;6.40;;;1.80;;
80247;SDS011;69560;52.206;21.018;2023-04-21T12:04:24;10.70;;;2.60;;
80247;SDS011;69560;52.206;21.018;2023-04-21T12:09:25;4.80;;;1.70;;
80247;SDS011;69560;52.206;21.018;2023-04-21T12:11:54;5.10;;;2.20;;
80247;SDS011;69560;52.206;21.018;2023-04-21T12:14:26;4.90;;;1.90;;
80247;SDS011;69560;52.206;21.018;2023-04-21T12:16:54;10.90;;;2.70;;
80247;SDS011;69560;52.206;21.018;2023-04-21T12:22:10;4.00;;;1.70;;
80247;SDS011;69560;52.206;21.018;2023-04-21T12:24:38;3.70;;;2.20;;
80247;SDS011;69560;52.206;21.018;2023-04-21T12:27:06;3.20;;;1.90;;
80247;SDS011;69560;52.206;21.018;2023-04-21T12:29:33;5.00;;;2.50;;
80247;SDS011;69560;52.206;21.018;2023-04-21T12:32:04;2.90;;;2.00;;
80247;SDS011;69560;52.206;21.018;2023-04-21T12:34:31;4.10;;;2.20;;
80247;SDS011;69560;52.206;21.018;2023-04-21T12:36:58;124.60;;;9.90;;
80247;SDS011;69560;52.206;21.018;2023-04-21T12:39:26;38.20;;;6.40;;
80247;SDS011;69560;52.206;21.018;2023-04-21T12:42:01;24.20;;;5.20;;
80247;SDS011;69560;52.206;21.018;2023-04-21T12:44:28;14.20;;;3.30;;
80247;SDS011;69560;52.206;21.018;2023-04-21T12:46:55;7.80;;;3.20;;
80247;SDS011;69560;52.206;21.018;2023-04-21T13:45:36;6.10;;;3.50;;
80247;SDS011;69560;52.206;21.018;2023-04-21T13:48:04;4.50;;;2.50;;
80247;SDS011;69560;52.206;21.018;2023-04-21T13:50:30;5.80;;;3.50;;
80247;SDS011;69560;52.206;21.018;2023-04-21T13:52:57;7.80;;;3.10;;
80247;SDS011;69560;52.206;21.018;2023-04-21T13:55:24;4.60;;;3.10;;
80247;SDS011;69560;52.206;21.018;2023-04-21T13:57:50;5.80;;;2.80;;
80247;SDS011;69560;52.206;21.018;2023-04-21T14:00:17;5.70;;;2.80;;
80247;SDS011;69560;52.206;21.018;2023-04-21T14:02:44;4.50;;;2.80;;
80247;SDS011;69560;52.206;21.018;2023-04-21T14:05:11;3.20;;;2.80;;
80247;SDS011;69560;52.206;21.018;2023-04-21T14:07:38;5.00;;;3.00;;
80247;SDS011;69560;52.206;21.018;2023-04-21T14:10:07;8.10;;;3.30;;
80247;SDS011;69560;52.206;21.018;2023-04-21T14:12:34;6.40;;;3.80;;
80247;SDS011;69560;52.206;21.018;2023-04-21T14:15:04;5.40;;;3.30;;
80247;SDS011;69560;52.206;21.018;2023-04-21T14:17:32;7.30;;;5.10;;
80247;SDS011;69560;52.206;21.018;2023-04-21T14:19:58;6.70;;;4.10;;
80247;SDS011;69560;52.206;21.018;2023-04-21T14:22:25;5.90;;;3.80;;
80247;SDS011;69560;52.206;21.018;2023-04-21T14:24:53;6.40;;;3.00;;
80247;SDS011;69560;52.206;21.018;2023-04-21T14:27:20;6.00;;;3.30;;
80247;SDS011;69560;52.206;21.018;2023-04-21T14:29:46;11.90;;;3.30;;
80247;SDS011;69560;52.206;21.018;2023-04-21T14:32:13;5.20;;;2.70;;
80247;SDS011;69560;52.206;21.018;2023-04-21T14:34:40;5.20;;;3.00;;
80247;SDS011;69560;52.206;21.018;2023-04-21T14:37:06;7.50;;;2.60;;
80247;SDS011;69560;52.206;21.018;2023-04-21T14:39:33;4.70;;;2.70;;
80247;SDS011;69560;52.206;21.018;2023-04-21T14:42:00;5.40;;;2.90;;
80247;SDS011;69560;52.206;21.018;2023-04-21T14:44:27;5.10;;;2.40;;
80247;SDS011;69560;52.206;21.018;2023-04-21T14:46:53;3.00;;;2.40;;
80247;SDS011;69560;52.206;21.018;2023-04-21T14:49:20;5.90;;;2.50;;
80247;SDS011;69560;52.206;21.018;2023-04-21T14:51:47;2.90;;;2.30;;
80247;SDS011;69560;52.206;21.018;2023-04-21T14:54:14;2.70;;;2.40;;
80247;SDS011;69560;52.206;21.018;2023-04-21T14:56:42;6.00;;;4.20;;
80247;SDS011;69560;52.206;21.018;2023-04-21T14:59:08;9.60;;;5.00;;
80247;SDS011;69560;52.206;21.018;2023-04-21T15:01:35;7.40;;;3.80;;
80247;SDS011;69560;52.206;21.018;2023-04-21T15:04:02;7.70;;;3.10;;
80247;SDS011;69560;52.206;21.018;2023-04-21T15:06:28;10.40;;;3.80;;
80247;SDS011;69560;52.206;21.018;2023-04-21T15:08:56;5.60;;;2.90;;
80247;SDS011;69560;52.206;21.018;2023-04-21T15:11:23;9.80;;;3.40;;
80247;SDS011;69560;52.206;21.018;2023-04-21T15:13:49;12.70;;;3.20;;
80247;SDS011;69560;52.206;21.018;2023-04-21T15:16:16;4.20;;;3.00;;
80247;SDS011;69560;52.206;21.018;2023-04-21T15:18:43;4.50;;;2.90;;
80247;SDS011;69560;52.206;21.018;2023-04-21T15:21:09;4.90;;;2.50;;
80247;SDS011;69560;52.206;21.018;2023-04-21T15:23:36;5.50;;;2.70;;
80247;SDS011;69560;52.206;21.018;2023-04-21T15:26:03;7.00;;;3.20;;
80247;SDS011;69560;52.206;21.018;2023-04-21T15:28:30;8.70;;;3.30;;
80247;SDS011;69560;52.206;21.018;2023-04-21T15:30:57;6.90;;;3.60;;
80247;SDS011;69560;52.206;21.018;2023-04-21T15:33:24;9.60;;;3.10;;
80247;SDS011;69560;52.206;21.018;2023-04-21T15:35:51;7.50;;;2.60;;
80247;SDS011;69560;52.206;21.018;2023-04-21T15:38:17;5.60;;;2.90;;
80247;SDS011;69560;52.206;21.018;2023-04-21T15:40:46;7.40;;;3.00;;
80247;SDS011;69560;52.206;21.018;2023-04-21T15:43:13;4.00;;;2.80;;
80247;SDS011;69560;52.206;21.018;2023-04-21T15:45:39;5.60;;;2.60;;
80247;SDS011;69560;52.206;21.018;2023-04-21T15:48:07;6.60;;;4.10;;
80247;SDS011;69560;52.206;21.018;2023-04-21T15:50:36;10.60;;;6.30;;
80247;SDS011;69560;52.206;21.018;2023-04-21T15:53:03;6.70;;;3.50;;
80247;SDS011;69560;52.206;21.018;2023-04-21T15:55:31;7.60;;;4.70;;
80247;SDS011;69560;52.206;21.018;2023-04-21T15:57:58;5.90;;;4.40;;
80247;SDS011;69560;52.206;21.018;2023-04-21T16:00:24;5.20;;;3.20;;
80247;SDS011;69560;52.206;21.018;2023-04-21T16:02:51;4.50;;;2.90;;
80247;SDS011;69560;52.206;21.018;2023-04-21T16:05:18;5.40;;;2.80;;
80247;SDS011;69560;52.206;21.018;2023-04-21T16:07:45;4.20;;;3.20;;
80247;SDS011;69560;52.206;21.018;2023-04-21T16:10:12;7.10;;;3.30;;
80247;SDS011;69560;52.206;21.018;2023-04-21T16:12:38;5.80;;;3.20;;
80247;SDS011;69560;52.206;21.018;2023-04-21T16:15:05;4.70;;;2.90;;
80247;SDS011;69560;52.206;21.018;2023-04-21T16:17:33;6.80;;;3.50;;
80247;SDS011;69560;52.206;21.018;2023-04-21T16:20:04;4.00;;;3.10;;
80247;SDS011;69560;52.206;21.018;2023-04-21T16:22:31;4.30;;;3.10;;
80247;SDS011;69560;52.206;21.018;2023-04-21T16:24:58;12.70;;;9.60;;
80247;SDS011;69560;52.206;21.018;2023-04-21T16:27:25;10.90;;;5.20;;
80247;SDS011;69560;52.206;21.018;2023-04-21T16:29:52;6.90;;;4.60;;
80247;SDS011;69560;52.206;21.018;2023-04-21T16:32:18;5.40;;;3.40;;
80247;SDS011;69560;52.206;21.018;2023-04-21T16:34:45;4.60;;;3.30;;
80247;SDS011;69560;52.206;21.018;2023-04-21T16:37:12;3.40;;;3.10;;
80247;SDS011;69560;52.206;21.018;2023-04-21T16:39:38;6.80;;;2.80;;
80247;SDS011;69560;52.206;21.018;2023-04-21T16:42:05;6.90;;;3.30;;
80247;SDS011;69560;52.206;21.018;2023-04-21T16:44:32;7.10;;;4.00;;
80247;SDS011;69560;52.206;21.018;2023-04-21T16:46:58;6.20;;;3.30;;
80247;SDS011;69560;52.206;21.018;2023-04-21T16:49:25;5.90;;;3.10;;
80247;SDS011;69560;52.206;21.018;2023-04-21T16:51:52;4.40;;;3.20;;
80247;SDS011;69560;52.206;21.018;2023-04-21T16:54:18;5.20;;;3.10;;
80247;SDS011;69560;52.206;21.018;2023-04-21T16:56:45;5.70;;;3.50;;
80247;SDS011;69560;52.206;21.018;2023-04-21T16:59:12;5.40;;;3.30;;
80247;SDS011;69560;52.206;21.018;2023-04-21T17:01:39;5.80;;;3.00;;
80247;SDS011;69560;52.206;21.018;2023-04-21T17:04:05;6.10;;;3.30;;
80247;SDS011;69560;52.206;21.018;2023-04-21T17:06:32;6.50;;;3.30;;
80247;SDS011;69560;52.206;21.018;2023-04-21T17:08:59;7.60;;;3.40;;
80247;SDS011;69560;52.206;21.018;2023-04-21T17:11:26;5.60;;;3.40;;
80247;SDS011;69560;52.206;21.018;2023-04-21T17:13:53;4.80;;;3.30;;
80247;SDS011;69560;52.206;21.018;2023-04-21T17:16:20;4.60;;;3.30;;
80247;SDS011;69560;52.206;21.018;2023-04-21T17:18:47;4.40;;;3.50;;
80247;SDS011;69560;52.206;21.018;2023-04-21T17:21:14;5.20;;;3.10;;
80247;SDS011;69560;52.206;21.018;2023-04-21T17:23:40;8.50;;;3.30;;
80247;SDS011;69560;52.206;21.018;2023-04-21T17:26:07;3.60;;;3.10;;
80247;SDS011;69560;52.206;21.018;2023-04-21T17:28:35;11.90;;;6.50;;
80247;SDS011;69560;52.206;21.018;2023-04-21T17:31:01;8.50;;;5.30;;